Time;durP1;ratioP1;P1;durP2;ratioP2;P2;SDS_P1;SDS_P2;PMS_P1;PMS_P2;Temp;Humidity;BMP_temperature;BMP_pressure;BME280_temperature;BME280_humidity;BME280_pressure;Samples;Min_cycle;Max_cycle;Signal;HPM_P1;HPM_P2
2023/04/14 00:00:58;;;;;;;17.80;3.42;;;4.50;99.90;;;;;;5110038;27;20428;-86
2023/04/14 00:03:24;;;;;;;13.68;3.45;;;4.20;99.90;;;;;;5096621;27;20132;-87
2023/04/14 00:05:50;;;;;;;14.65;2.95;;;4.20;99.90;;;;;;5125500;27;20552;-86
2023/04/14 00:08:15;;;;;;;17.23;2.70;;;4.10;99.90;;;;;;5096476;27;20569;-86
2023/04/14 00:10:41;;;;;;;15.27;2.70;;;4.20;99.90;;;;;;5109754;27;20042;-85
2023/04/14 00:13:07;;;;;;;21.55;2.67;;;4.60;99.90;;;;;;5096163;27;20102;-87
2023/04/14 00:15:32;;;;;;;21.23;4.05;;;4.20;99.90;;;;;;5102270;27;20050;-86
2023/04/14 00:17:58;;;;;;;16.17;4.30;;;4.20;99.90;;;;;;5116364;27;20049;-87
2023/04/14 00:20:24;;;;;;;12.75;2.83;;;5.10;99.90;;;;;;5095660;27;20043;-87
2023/04/14 00:22:49;;;;;;;12.45;2.67;;;4.20;99.90;;;;;;5109101;27;20055;-87
2023/04/14 00:25:15;;;;;;;14.13;2.83;;;4.20;99.90;;;;;;5115520;27;20038;-87
2023/04/14 00:27:41;;;;;;;11.00;2.42;;;4.20;99.90;;;;;;5103179;27;20062;-87
2023/04/14 00:30:07;;;;;;;12.68;2.85;;;4.80;99.90;;;;;;5116529;27;20489;-87
2023/04/14 00:32:33;;;;;;;18.05;3.38;;;4.10;99.90;;;;;;5115254;27;20120;-87
2023/04/14 00:35:01;;;;;;;16.98;4.82;;;4.10;99.90;;;;;;5109958;27;20035;-86
2023/04/14 00:37:28;;;;;;;18.08;4.13;;;4.10;99.90;;;;;;5108583;27;20039;-86
2023/04/14 00:39:54;;;;;;;15.55;2.88;;;4.50;99.90;;;;;;5095368;27;20431;-86
2023/04/14 00:42:19;;;;;;;16.23;3.60;;;4.30;99.90;;;;;;5112543;27;20039;-87
2023/04/14 00:44:46;;;;;;;17.65;5.03;;;4.40;99.90;;;;;;5096318;27;20059;-87
2023/04/14 00:47:12;;;;;;;12.02;5.43;;;4.00;99.90;;;;;;5125274;27;20039;-86
2023/04/14 00:49:38;;;;;;;12.32;3.65;;;4.30;99.90;;;;;;5103151;27;20034;-86
2023/04/14 00:52:05;;;;;;;13.85;2.92;;;4.00;99.90;;;;;;5115608;27;20435;-86
2023/04/14 00:54:32;;;;;;;16.13;3.60;;;4.70;99.90;;;;;;5106667;27;20553;-86
2023/04/14 00:56:59;;;;;;;12.45;3.38;;;4.30;99.90;;;;;;5113479;27;20146;-86
2023/04/14 00:59:27;;;;;;;15.60;2.70;;;4.50;99.90;;;;;;5107791;27;20043;-87
2023/04/14 01:01:55;;;;;;;17.73;3.25;;;3.90;99.90;;;;;;5095051;27;20736;-86
2023/04/14 01:04:21;;;;;;;8.98;2.97;;;4.60;99.90;;;;;;5102376;27;20073;-86
2023/04/14 01:06:47;;;;;;;11.93;2.58;;;3.90;99.90;;;;;;5118571;27;20441;-86
2023/04/14 01:09:15;;;;;;;12.35;2.55;;;3.70;99.90;;;;;;5094712;27;20039;-85
2023/04/14 01:11:58;;;;;;;15.70;3.78;;;3.70;99.90;;;;;;5109777;27;20061;-86
2023/04/14 01:14:31;;;;;;;13.15;2.95;;;3.60;99.90;;;;;;5132352;27;20435;-87
2023/04/14 01:17:04;;;;;;;10.35;2.38;;;3.50;99.90;;;;;;5111711;27;20070;-86
2023/04/14 01:19:45;;;;;;;13.60;3.17;;;4.20;99.90;;;;;;5107140;27;20126;-86
2023/04/14 01:22:16;;;;;;;9.00;2.90;;;4.20;99.90;;;;;;5111010;27;20035;-85
2023/04/14 01:24:41;;;;;;;15.75;2.85;;;3.50;99.90;;;;;;5095928;27;20086;-86
2023/04/14 01:27:20;;;;;;;10.45;2.70;;;3.50;99.90;;;;;;5108491;27;20043;-86
2023/04/14 01:29:54;;;;;;;14.57;2.72;;;3.50;99.90;;;;;;5110956;27;20086;-86
2023/04/14 01:32:24;;;;;;;12.18;3.03;;;3.40;99.90;;;;;;5104062;27;20051;-87
2023/04/14 01:34:54;;;;;;;11.85;2.92;;;4.20;99.90;;;;;;5109351;27;20054;-86
2023/04/14 01:37:30;;;;;;;11.30;2.97;;;3.60;99.90;;;;;;5111223;27;20045;-86
2023/04/14 01:40:02;;;;;;;13.23;3.78;;;3.40;99.90;;;;;;5114971;27;20053;-86
2023/04/14 01:42:32;;;;;;;12.30;3.15;;;3.60;99.90;;;;;;5114712;27;20042;-86
2023/04/14 01:45:09;;;;;;;21.88;3.40;;;3.90;99.90;;;;;;5108063;27;20039;-87
2023/04/14 01:47:36;;;;;;;13.13;3.20;;;3.40;99.90;;;;;;5114107;27;20042;-87
2023/04/14 01:50:04;;;;;;;14.35;3.22;;;4.00;99.90;;;;;;5123165;27;20039;-85
2023/04/14 01:52:31;;;;;;;13.60;2.80;;;3.40;99.90;;;;;;5106208;27;20039;-87
2023/04/14 01:54:59;;;;;;;11.85;2.58;;;3.70;99.90;;;;;;5095003;27;20147;-87
2023/04/14 01:57:26;;;;;;;7.32;2.30;;;3.70;99.90;;;;;;5109977;27;20058;-87
2023/04/14 01:59:55;;;;;;;10.95;2.75;;;3.60;99.90;;;;;;5106125;27;20039;-87
2023/04/14 02:02:22;;;;;;;11.82;2.80;;;3.40;99.90;;;;;;5093765;27;20043;-86
2023/04/14 02:04:49;;;;;;;10.48;3.20;;;3.40;99.90;;;;;;5094079;27;20490;-86
2023/04/14 02:07:16;;;;;;;13.95;2.70;;;4.30;99.90;;;;;;5123514;27;20047;-86
2023/04/14 02:09:44;;;;;;;13.38;2.78;;;4.30;99.90;;;;;;5093924;27;20126;-85
2023/04/14 02:12:10;;;;;;;11.93;2.55;;;4.00;99.90;;;;;;5093453;27;20035;-86
2023/04/14 02:14:39;;;;;;;10.25;2.92;;;3.50;99.90;;;;;;5093827;27;20054;-86
2023/04/14 02:17:08;;;;;;;11.15;3.55;;;3.50;99.90;;;;;;5094655;27;20951;-86
2023/04/14 02:19:35;;;;;;;11.45;3.20;;;3.60;99.90;;;;;;5105236;27;20042;-86
2023/04/14 02:22:02;;;;;;;22.25;3.65;;;3.60;99.90;;;;;;5100552;27;20034;-86
2023/04/14 02:24:29;;;;;;;11.13;3.00;;;3.60;99.90;;;;;;5100750;27;20035;-86
2023/04/14 02:27:13;;;;;;;9.45;3.05;;;3.70;99.90;;;;;;5092967;27;20035;-86
2023/04/14 02:29:44;;;;;;;7.53;2.58;;;3.60;99.90;;;;;;5094147;27;20491;-86
2023/04/14 02:32:18;;;;;;;11.73;2.95;;;3.70;99.90;;;;;;5092531;27;20096;-86
2023/04/14 02:34:52;;;;;;;11.77;2.72;;;4.40;99.90;;;;;;5098250;27;20035;-86
2023/04/14 02:37:24;;;;;;;9.52;3.30;;;3.60;99.90;;;;;;5100512;27;20422;-86
2023/04/14 02:39:57;;;;;;;9.65;2.97;;;3.70;99.90;;;;;;5106308;27;20513;-86
2023/04/14 02:42:27;;;;;;;11.40;2.72;;;4.60;99.90;;;;;;5106693;27;20038;-87
2023/04/14 02:45:02;;;;;;;14.07;3.00;;;3.80;99.90;;;;;;5094204;27;20130;-86
2023/04/14 02:47:34;;;;;;;11.05;3.13;;;3.80;99.90;;;;;;5105874;27;20110;-86
2023/04/14 02:50:03;;;;;;;10.93;2.88;;;3.80;99.90;;;;;;5098102;28;20043;-86
2023/04/14 02:52:31;;;;;;;14.02;2.90;;;3.90;99.90;;;;;;5105904;27;20679;-86
2023/04/14 02:54:59;;;;;;;8.68;2.53;;;4.00;99.90;;;;;;5093385;28;20031;-86
2023/04/14 02:57:26;;;;;;;9.85;2.80;;;4.50;99.90;;;;;;5106132;28;20035;-86
2023/04/14 02:59:52;;;;;;;14.00;3.10;;;4.00;99.90;;;;;;5104264;27;20112;-86
2023/04/14 03:02:20;;;;;;;12.35;3.45;;;4.00;99.90;;;;;;5099823;27;20027;-87
2023/04/14 03:04:45;;;;;;;11.63;2.97;;;4.00;99.90;;;;;;5114724;27;20053;-85
2023/04/14 03:07:13;;;;;;;10.07;2.72;;;4.20;99.90;;;;;;5111843;27;20034;-86
2023/04/14 03:09:39;;;;;;;9.52;3.22;;;4.00;99.90;;;;;;5114021;27;20038;-86
2023/04/14 03:12:06;;;;;;;13.55;3.78;;;4.00;99.90;;;;;;5096339;28;20031;-85
2023/04/14 03:14:34;;;;;;;10.57;2.88;;;3.80;99.90;;;;;;5092230;28;20043;-86
2023/04/14 03:17:00;;;;;;;15.77;3.13;;;3.80;99.90;;;;;;5098073;27;20042;-86
2023/04/14 03:19:27;;;;;;;9.73;2.67;;;3.80;99.90;;;;;;5106394;27;20187;-87
2023/04/14 03:21:54;;;;;;;13.23;3.72;;;4.00;99.90;;;;;;5115020;27;20045;-86
2023/04/14 03:24:26;;;;;;;8.20;3.30;;;4.10;99.90;;;;;;5117515;27;20494;-87
2023/04/14 03:26:56;;;;;;;13.10;3.30;;;4.40;99.90;;;;;;5117790;27;20091;-87
2023/04/14 03:29:29;;;;;;;14.88;3.08;;;4.10;99.90;;;;;;5133891;27;20047;-86
2023/04/14 03:31:59;;;;;;;10.73;3.30;;;3.70;99.90;;;;;;5117351;27;20489;-86
2023/04/14 03:34:28;;;;;;;10.77;3.38;;;3.70;99.90;;;;;;5103075;27;20035;-86
2023/04/14 03:36:56;;;;;;;13.57;3.60;;;3.60;99.90;;;;;;5096013;27;20053;-87
2023/04/14 03:39:26;;;;;;;10.88;3.05;;;4.20;99.90;;;;;;5111105;27;20034;-85
2023/04/14 03:41:54;;;;;;;11.18;3.13;;;3.60;99.90;;;;;;5106068;27;20509;-86
2023/04/14 03:44:22;;;;;;;13.95;3.42;;;3.60;99.90;;;;;;5100305;27;20127;-86
2023/04/14 03:46:48;;;;;;;9.05;2.83;;;3.50;99.90;;;;;;5097233;27;20074;-87
2023/04/14 03:49:16;;;;;;;14.15;3.60;;;4.30;99.90;;;;;;5109532;27;20071;-86
2023/04/14 03:51:44;;;;;;;12.82;3.83;;;4.20;99.90;;;;;;5096115;27;20104;-86
2023/04/14 03:54:14;;;;;;;12.85;3.03;;;3.50;99.90;;;;;;5113632;27;20031;-87
2023/04/14 03:56:44;;;;;;;9.48;3.25;;;4.40;99.90;;;;;;5108052;27;20050;-86
2023/04/14 03:59:13;;;;;;;14.80;3.58;;;4.40;99.90;;;;;;5103776;27;20057;-86
2023/04/14 04:01:40;;;;;;;12.70;3.45;;;4.00;99.90;;;;;;5104441;27;20077;-86
2023/04/14 04:04:06;;;;;;;9.05;3.30;;;3.50;99.90;;;;;;5102457;27;21053;-86
2023/04/14 04:06:33;;;;;;;11.18;3.45;;;3.40;99.90;;;;;;5104845;27;20386;-86
2023/04/14 04:09:00;;;;;;;14.88;3.25;;;3.40;99.90;;;;;;5101378;27;20050;-86
2023/04/14 04:11:28;;;;;;;9.15;2.95;;;4.10;99.90;;;;;;5103747;27;20221;-86
2023/04/14 04:13:55;;;;;;;14.65;4.03;;;3.80;99.90;;;;;;5096627;27;20043;-87
2023/04/14 04:16:23;;;;;;;12.85;3.35;;;4.40;99.90;;;;;;5108812;27;20130;-87
2023/04/14 04:18:49;;;;;;;12.15;2.72;;;3.70;99.90;;;;;;5096569;27;20051;-86
2023/04/14 04:21:17;;;;;;;13.75;3.53;;;3.90;99.90;;;;;;5097583;27;20121;-86
2023/04/14 04:23:47;;;;;;;13.43;3.15;;;3.30;99.90;;;;;;5096174;27;20071;-86
2023/04/14 04:26:13;;;;;;;13.25;3.28;;;4.00;99.90;;;;;;5101015;27;20431;-87
2023/04/14 04:28:40;;;;;;;11.75;3.60;;;3.50;99.90;;;;;;5102392;27;20124;-86
2023/04/14 04:31:08;;;;;;;15.48;3.35;;;3.60;99.90;;;;;;5103932;27;20085;-86
2023/04/14 04:33:35;;;;;;;12.68;4.22;;;3.30;99.90;;;;;;5116536;27;20042;-87
2023/04/14 04:36:01;;;;;;;14.90;3.67;;;4.10;99.90;;;;;;5102440;27;20039;-87
2023/04/14 04:38:27;;;;;;;12.45;3.30;;;3.50;99.90;;;;;;5120077;27;20072;-87
2023/04/14 04:40:53;;;;;;;10.50;3.33;;;3.90;99.90;;;;;;5102809;27;20474;-87
2023/04/14 04:43:19;;;;;;;8.93;3.20;;;3.70;99.90;;;;;;5116836;27;20126;-87
2023/04/14 04:46:04;;;;;;;12.50;3.28;;;3.40;99.90;;;;;;5116037;27;20133;-87
2023/04/14 04:48:30;;;;;;;7.75;3.10;;;3.50;99.90;;;;;;5105721;27;20043;-87
2023/04/14 04:50:56;;;;;;;12.07;3.58;;;3.70;99.90;;;;;;5117081;27;20049;-88
2023/04/14 04:53:21;;;;;;;13.88;3.63;;;4.40;99.90;;;;;;5096069;27;20046;-88
2023/04/14 04:55:47;;;;;;;13.23;3.92;;;4.40;99.90;;;;;;5113120;27;20103;-87
2023/04/14 04:58:13;;;;;;;11.68;3.50;;;3.50;99.90;;;;;;5117017;27;20390;-88
2023/04/14 05:00:38;;;;;;;10.45;3.22;;;3.60;99.90;;;;;;5111326;27;20049;-87
2023/04/14 05:03:04;;;;;;;12.27;3.88;;;3.60;99.90;;;;;;5106574;27;20062;-88
2023/04/14 05:05:35;;;;;;;12.93;3.80;;;4.00;99.90;;;;;;5115876;27;20489;-88
2023/04/14 05:08:01;;;;;;;16.63;3.95;;;4.30;99.90;;;;;;5105755;27;20040;-88
2023/04/14 05:10:28;;;;;;;11.70;4.25;;;4.00;99.90;;;;;;5095583;27;20035;-87
2023/04/14 05:12:54;;;;;;;17.65;3.80;;;4.60;99.90;;;;;;5098443;27;20039;-87
2023/04/14 05:15:20;;;;;;;7.80;3.55;;;4.20;99.90;;;;;;5113257;27;20050;-88
2023/04/14 05:17:45;;;;;;;9.48;3.70;;;4.50;99.90;;;;;;5115236;27;20094;-88
2023/04/14 05:20:11;;;;;;;11.60;3.97;;;4.00;99.90;;;;;;5112364;27;20089;-87
2023/04/14 05:22:37;;;;;;;12.23;3.80;;;4.00;99.90;;;;;;5103097;27;20050;-87
2023/04/14 05:25:03;;;;;;;11.05;4.07;;;4.20;99.90;;;;;;5095940;27;20043;-87
2023/04/14 05:27:29;;;;;;;11.40;4.10;;;4.20;99.90;;;;;;5122468;27;20051;-88
2023/04/14 05:29:55;;;;;;;12.98;4.15;;;4.40;99.90;;;;;;5113041;27;20043;-88
2023/04/14 05:32:20;;;;;;;15.10;4.00;;;4.30;99.90;;;;;;5105155;27;20050;-87
2023/04/14 05:34:46;;;;;;;12.13;4.97;;;4.40;99.90;;;;;;5103537;27;20046;-86
2023/04/14 05:37:12;;;;;;;14.48;4.07;;;4.40;99.90;;;;;;5099952;28;20046;-87
2023/04/14 05:39:38;;;;;;;11.63;3.85;;;4.50;99.90;;;;;;5105928;28;20502;-88
2023/04/14 05:42:04;;;;;;;16.15;4.28;;;4.50;99.90;;;;;;5108166;27;20046;-88
2023/04/14 05:44:30;;;;;;;10.25;3.78;;;4.50;99.90;;;;;;5112236;27;20047;-87
2023/04/14 05:46:55;;;;;;;15.18;4.10;;;4.50;99.90;;;;;;5110219;27;20039;-87
2023/04/14 05:49:21;;;;;;;12.93;4.00;;;5.20;99.90;;;;;;5108142;28;20043;-88
2023/04/14 05:51:47;;;;;;;10.35;3.80;;;4.80;99.90;;;;;;5094758;28;20048;-87
2023/04/14 05:54:13;;;;;;;12.50;4.78;;;4.60;99.90;;;;;;5109460;27;20035;-88
2023/04/14 05:56:39;;;;;;;13.70;3.95;;;4.60;99.90;;;;;;5100278;28;20048;-87
2023/04/14 05:59:04;;;;;;;12.30;3.65;;;5.20;99.90;;;;;;5097931;28;20483;-86
2023/04/14 06:01:30;;;;;;;7.60;3.63;;;4.60;99.90;;;;;;5098335;28;20044;-87
2023/04/14 06:03:56;;;;;;;14.63;4.60;;;4.60;99.90;;;;;;5091865;28;20079;-87
2023/04/14 06:06:21;;;;;;;11.38;4.10;;;4.60;99.90;;;;;;5091223;28;20172;-88
2023/04/14 06:08:47;;;;;;;12.70;4.55;;;4.50;99.90;;;;;;5091980;28;20039;-87
2023/04/14 06:11:13;;;;;;;12.20;4.38;;;4.50;99.90;;;;;;5100096;27;20137;-87
2023/04/14 06:13:38;;;;;;;11.27;3.70;;;5.10;99.90;;;;;;5113813;27;20035;-87
2023/04/14 06:16:04;;;;;;;9.20;3.60;;;4.70;99.90;;;;;;5116555;27;20053;-87
2023/04/14 06:18:30;;;;;;;11.40;3.60;;;4.50;99.90;;;;;;5116969;27;20107;-88
2023/04/14 06:20:56;;;;;;;13.13;3.50;;;4.50;99.90;;;;;;5098540;27;20048;-88
2023/04/14 06:23:23;;;;;;;12.15;4.30;;;4.60;99.90;;;;;;5109878;27;20138;-87
2023/04/14 06:25:51;;;;;;;13.60;3.85;;;5.40;99.90;;;;;;5107548;27;20460;-87
2023/04/14 06:28:17;;;;;;;16.52;4.03;;;4.90;99.90;;;;;;5093186;28;20104;-86
2023/04/14 06:30:43;;;;;;;13.80;3.60;;;4.90;99.90;;;;;;5084527;28;20333;-88
2023/04/14 06:33:11;;;;;;;12.60;3.83;;;5.30;99.90;;;;;;5071045;28;20040;-87
2023/04/14 06:35:36;;;;;;;15.23;3.40;;;5.20;99.90;;;;;;5079616;28;20108;-87
2023/04/14 06:38:02;;;;;;;11.00;3.65;;;5.30;99.90;;;;;;5089149;28;20032;-85
2023/04/14 06:40:28;;;;;;;13.98;3.90;;;5.40;99.90;;;;;;5090870;28;20051;-87
2023/04/14 06:42:54;;;;;;;13.77;3.55;;;5.50;99.90;;;;;;5080487;28;20038;-88
2023/04/14 06:45:20;;;;;;;12.07;3.83;;;5.70;99.90;;;;;;5086910;28;20051;-88
2023/04/14 06:47:46;;;;;;;14.63;3.72;;;5.90;99.90;;;;;;5086944;28;20058;-87
2023/04/14 06:50:11;;;;;;;12.00;3.60;;;6.60;99.90;;;;;;5086666;28;20044;-88
2023/04/14 06:52:37;;;;;;;15.52;4.60;;;6.20;99.90;;;;;;5084708;28;20051;-87
2023/04/14 06:55:03;;;;;;;17.73;3.63;;;6.20;99.90;;;;;;5086513;28;20354;-87
2023/04/14 06:57:28;;;;;;;13.07;3.22;;;6.30;99.90;;;;;;5090469;28;20035;-86
2023/04/14 06:59:55;;;;;;;13.20;3.38;;;6.40;99.90;;;;;;5089788;28;20682;-87
2023/04/14 07:02:21;;;;;;;10.25;3.25;;;6.60;99.90;;;;;;5084633;28;20475;-87
2023/04/14 07:04:46;;;;;;;10.52;2.85;;;6.70;99.90;;;;;;5081915;28;20063;-87
2023/04/14 07:07:13;;;;;;;17.08;3.55;;;6.80;99.90;;;;;;5089332;28;20475;-88
2023/04/14 07:09:41;;;;;;;15.60;2.85;;;7.00;99.90;;;;;;5090898;28;20654;-88
2023/04/14 07:12:12;;;;;;;17.05;3.40;;;7.30;99.90;;;;;;5090725;28;20616;-87
2023/04/14 07:14:39;;;;;;;14.82;3.25;;;7.30;99.90;;;;;;5089778;28;20036;-88
2023/04/14 07:17:05;;;;;;;21.05;3.78;;;7.40;99.90;;;;;;5090309;28;20040;-88
2023/04/14 07:19:31;;;;;;;15.85;2.72;;;7.90;99.90;;;;;;5081176;28;20102;-89
2023/04/14 07:21:57;;;;;;;8.05;2.33;;;7.60;99.90;;;;;;5089202;28;20040;-88
2023/04/14 07:24:22;;;;;;;12.43;2.45;;;7.70;99.90;;;;;;5090554;28;20046;-89
2023/04/14 07:26:48;;;;;;;10.50;2.35;;;7.80;99.90;;;;;;5090323;28;20353;-87
2023/04/14 07:29:14;;;;;;;18.05;2.70;;;7.90;99.90;;;;;;5112399;28;20127;-88
2023/04/14 07:31:40;;;;;;;13.15;2.88;;;8.10;99.90;;;;;;5090208;28;20400;-87
2023/04/14 07:34:06;;;;;;;11.50;2.60;;;8.30;99.90;;;;;;5103603;28;20043;-87
2023/04/14 07:36:32;;;;;;;12.75;2.83;;;8.80;99.90;;;;;;5088890;28;20491;-87
2023/04/14 07:38:58;;;;;;;13.55;2.90;;;8.50;99.90;;;;;;5103641;28;20076;-87
2023/04/14 07:41:25;;;;;;;12.57;2.45;;;8.60;99.90;;;;;;5109191;28;20146;-88
2023/04/14 07:43:54;;;;;;;10.93;2.55;;;8.70;99.90;;;;;;5111105;28;20509;-87
2023/04/14 07:46:20;;;;;;;12.45;2.58;;;8.80;99.90;;;;;;5089549;28;20062;-87
2023/04/14 07:48:46;;;;;;;16.63;2.22;;;8.90;99.90;;;;;;5103897;28;20047;-88
2023/04/14 07:51:12;;;;;;;14.57;2.33;;;9.10;99.90;;;;;;5106976;28;20047;-88
2023/04/14 07:53:41;;;;;;;12.25;2.55;;;9.10;99.90;;;;;;5100544;28;20043;-88
2023/04/14 07:56:07;;;;;;;14.07;2.60;;;9.20;99.90;;;;;;5090902;28;20058;-88
2023/04/14 07:58:33;;;;;;;11.88;2.45;;;9.40;99.90;;;;;;5103246;28;20398;-88
2023/04/14 08:00:58;;;;;;;12.82;2.10;;;9.40;99.90;;;;;;5097456;28;20039;-87
2023/04/14 08:03:24;;;;;;;11.55;2.03;;;9.50;99.90;;;;;;5108674;27;20471;-89
2023/04/14 08:05:51;;;;;;;16.60;2.53;;;9.60;99.90;;;;;;5113291;27;20043;-87
2023/04/14 08:08:17;;;;;;;18.42;2.65;;;9.60;99.90;;;;;;5111065;28;20496;-87
2023/04/14 08:10:42;;;;;;;10.30;2.33;;;9.70;99.90;;;;;;5092370;28;20466;-87
2023/04/14 08:13:09;;;;;;;11.35;2.38;;;9.70;99.90;;;;;;5107242;27;20454;-88
2023/04/14 08:15:35;;;;;;;15.25;2.47;;;9.80;99.90;;;;;;5113892;27;20043;-88
2023/04/14 08:18:00;;;;;;;15.27;2.85;;;10.20;99.90;;;;;;5114506;27;20100;-88
2023/04/14 08:20:26;;;;;;;17.30;2.83;;;9.90;99.90;;;;;;5100367;27;20043;-90
2023/04/14 08:22:52;;;;;;;15.10;2.63;;;10.00;99.90;;;;;;5114216;27;20130;-88
2023/04/14 08:25:17;;;;;;;11.52;1.95;;;10.50;99.90;;;;;;5113761;27;20088;-89
2023/04/14 08:27:43;;;;;;;15.98;2.22;;;10.20;99.90;;;;;;5114047;27;20043;-87
2023/04/14 08:30:10;;;;;;;14.20;2.55;;;10.40;99.90;;;;;;5113567;27;20053;-89
2023/04/14 08:32:36;;;;;;;13.25;2.08;;;10.40;99.90;;;;;;5100082;28;20126;-88
2023/04/14 08:35:01;;;;;;;13.13;2.50;;;10.50;99.90;;;;;;5113456;27;20122;-88
2023/04/14 08:37:27;;;;;;;13.93;2.47;;;10.50;99.90;;;;;;5129056;27;20069;-87
2023/04/14 08:39:53;;;;;;;12.27;2.25;;;10.80;99.90;;;;;;5117670;27;20402;-88
2023/04/14 08:42:20;;;;;;;13.38;2.50;;;10.60;99.90;;;;;;5134385;27;20499;-88
2023/04/14 08:44:46;;;;;;;14.68;3.13;;;10.70;99.90;;;;;;5109160;27;20047;-88
2023/04/14 08:47:13;;;;;;;12.68;2.35;;;10.80;99.90;;;;;;5101634;28;20046;-88
2023/04/14 08:49:44;;;;;;;12.80;2.17;;;10.90;99.90;;;;;;5123365;27;20050;-86
2023/04/14 08:52:11;;;;;;;14.10;2.65;;;11.00;99.90;;;;;;5108272;28;20127;-87
2023/04/14 08:54:40;;;;;;;11.98;2.22;;;11.00;99.90;;;;;;5100722;27;20130;-88
2023/04/14 08:57:10;;;;;;;11.85;2.50;;;11.10;99.90;;;;;;5110634;27;20494;-87
2023/04/14 08:59:37;;;;;;;13.07;2.83;;;11.10;99.90;;;;;;5091707;28;20039;-87
2023/04/14 09:02:05;;;;;;;14.50;2.50;;;11.30;99.90;;;;;;5093894;27;20171;-87
2023/04/14 09:04:32;;;;;;;17.67;2.80;;;11.40;99.90;;;;;;5120714;27;20043;-87
2023/04/14 09:06:58;;;;;;;14.07;2.22;;;11.40;99.90;;;;;;5109786;27;20485;-88
2023/04/14 09:09:24;;;;;;;11.98;2.47;;;11.50;99.90;;;;;;5109967;27;20545;-87
2023/04/14 09:11:51;;;;;;;9.38;2.17;;;11.60;99.90;;;;;;5114903;27;20140;-87
2023/04/14 09:14:17;;;;;;;9.38;2.42;;;11.70;99.90;;;;;;5092052;28;20204;-87
2023/04/14 09:16:43;;;;;;;13.43;2.50;;;11.70;99.90;;;;;;5125178;27;20478;-87
2023/04/14 09:19:10;;;;;;;13.10;2.80;;;11.70;99.90;;;;;;5112750;27;20054;-88
2023/04/14 09:21:39;;;;;;;15.20;3.10;;;11.80;99.90;;;;;;5097496;27;20338;-88
2023/04/14 09:24:05;;;;;;;10.52;2.38;;;11.90;99.90;;;;;;5101497;28;20120;-88
2023/04/14 09:26:31;;;;;;;13.88;3.05;;;12.00;99.90;;;;;;5114057;27;20050;-87
2023/04/14 09:28:57;;;;;;;15.23;2.42;;;12.00;99.90;;;;;;5101539;28;20052;-88
2023/04/14 09:31:23;;;;;;;9.90;2.10;;;12.10;99.90;;;;;;5102211;27;20046;-88
2023/04/14 09:33:50;;;;;;;11.18;2.58;;;12.10;99.90;;;;;;5104917;27;20115;-88
2023/04/14 09:36:18;;;;;;;10.75;2.38;;;12.10;99.90;;;;;;5112015;27;20039;-87
2023/04/14 09:38:44;;;;;;;10.05;2.30;;;12.20;99.90;;;;;;5111791;27;20047;-88
2023/04/14 09:41:16;;;;;;;10.57;2.67;;;12.30;99.90;;;;;;5107034;28;20054;-86
2023/04/14 09:43:42;;;;;;;11.75;2.08;;;12.40;99.90;;;;;;5103578;27;20090;-87
2023/04/14 09:46:09;;;;;;;14.90;2.45;;;12.40;99.90;;;;;;5108109;28;20032;-88
2023/04/14 09:48:36;;;;;;;10.00;1.77;;;12.50;99.90;;;;;;5091360;28;20043;-88
2023/04/14 09:51:05;;;;;;;15.30;2.28;;;12.50;99.90;;;;;;5091444;28;20050;-87
2023/04/14 09:53:34;;;;;;;12.18;2.58;;;12.60;99.90;;;;;;5095101;28;20079;-89
2023/04/14 09:56:04;;;;;;;12.88;2.75;;;12.70;99.90;;;;;;5110683;27;20035;-89
2023/04/14 09:58:36;;;;;;;8.32;2.03;;;12.80;99.90;;;;;;5112557;27;20127;-88
2023/04/14 10:01:03;;;;;;;9.55;1.67;;;12.80;99.90;;;;;;5107741;27;20439;-88
2023/04/14 10:03:34;;;;;;;12.40;2.10;;;12.80;99.90;;;;;;5097988;27;20357;-83
2023/04/14 10:06:03;;;;;;;14.20;2.10;;;12.90;99.90;;;;;;5119062;27;20058;-83
2023/04/14 10:08:36;;;;;;;15.05;2.03;;;13.00;99.90;;;;;;5089989;27;20047;-86
2023/04/14 10:11:23;;;;;;;11.30;2.03;;;13.10;99.90;;;;;;5090211;28;20432;-87
2023/04/14 10:13:55;;;;;;;14.35;2.47;;;13.20;99.90;;;;;;5114332;27;20490;-86
2023/04/14 10:16:22;;;;;;;11.68;2.50;;;13.30;99.90;;;;;;5109232;27;20062;-86
2023/04/14 10:18:48;;;;;;;9.07;1.98;;;13.40;99.90;;;;;;5114921;27;20438;-85
2023/04/14 10:21:15;;;;;;;16.70;2.40;;;13.50;99.90;;;;;;5096102;28;20051;-87
2023/04/14 10:23:42;;;;;;;11.77;2.33;;;13.50;99.90;;;;;;5090139;28;20044;-86
2023/04/14 10:26:08;;;;;;;11.10;2.53;;;13.50;99.90;;;;;;5100608;28;20126;-86
2023/04/14 10:28:36;;;;;;;9.48;2.03;;;13.50;99.90;;;;;;5089776;28;20052;-86
2023/04/14 10:31:05;;;;;;;11.00;2.17;;;13.40;99.90;;;;;;5104116;27;20130;-87
2023/04/14 10:33:30;;;;;;;17.55;2.55;;;13.40;99.90;;;;;;5098270;27;20481;-87
2023/04/14 10:36:00;;;;;;;10.38;2.17;;;13.40;99.90;;;;;;5096651;28;20052;-87
2023/04/14 10:38:39;;;;;;;15.05;2.38;;;13.50;99.90;;;;;;5098151;27;20078;-88
2023/04/14 10:41:06;;;;;;;13.95;2.42;;;13.50;99.90;;;;;;5106835;27;20467;-84
2023/04/14 10:43:34;;;;;;;10.68;2.28;;;13.60;99.90;;;;;;5117829;27;20050;-86
2023/04/14 10:46:00;;;;;;;11.43;2.60;;;13.80;99.90;;;;;;5098050;27;20043;-85
2023/04/14 10:48:32;;;;;;;10.02;2.15;;;13.90;99.90;;;;;;5120804;27;20051;-86
2023/04/14 10:50:58;;;;;;;9.85;2.30;;;14.00;99.90;;;;;;5122833;28;20036;-87
2023/04/14 10:53:26;;;;;;;12.88;2.55;;;14.10;99.90;;;;;;5107252;28;20158;-86
2023/04/14 10:55:56;;;;;;;13.38;2.65;;;14.10;99.90;;;;;;5107771;28;20036;-89
2023/04/14 10:58:26;;;;;;;9.30;2.13;;;14.20;99.90;;;;;;5106057;28;20031;-86
2023/04/14 11:00:53;;;;;;;11.90;2.50;;;14.30;99.90;;;;;;5109756;28;20356;-93
2023/04/14 11:03:19;;;;;;;12.45;2.47;;;14.30;99.90;;;;;;5106406;28;20039;-90
2023/04/14 11:05:48;;;;;;;14.32;2.67;;;14.40;99.90;;;;;;5107474;28;20474;-91
2023/04/14 11:08:18;;;;;;;11.85;2.78;;;14.50;99.90;;;;;;5110506;28;20035;-91
2023/04/14 11:10:49;;;;;;;10.13;2.30;;;14.60;99.90;;;;;;5106917;28;20039;-89
2023/04/14 11:13:16;;;;;;;8.88;2.53;;;14.70;99.90;;;;;;5099417;28;20046;-88
2023/04/14 11:15:50;;;;;;;6.72;1.75;;;14.80;99.90;;;;;;5098818;28;20035;-88
2023/04/14 11:18:18;;;;;;;10.43;2.20;;;14.80;99.90;;;;;;5112611;28;20050;-88
2023/04/14 11:20:44;;;;;;;9.95;2.83;;;14.90;99.90;;;;;;5102953;28;20043;-87
2023/04/14 11:23:12;;;;;;;13.80;2.72;;;15.00;99.90;;;;;;5112483;28;20066;-90
2023/04/14 11:25:39;;;;;;;13.10;2.60;;;15.00;99.90;;;;;;5114532;28;20055;-90
2023/04/14 11:28:04;;;;;;;11.68;2.80;;;14.90;99.90;;;;;;5113581;28;20495;-90
2023/04/14 11:30:31;;;;;;;11.65;2.72;;;15.00;99.90;;;;;;5111685;28;20100;-91
2023/04/14 11:32:57;;;;;;;8.90;2.35;;;15.00;99.90;;;;;;5113257;28;20043;-88
2023/04/14 11:35:25;;;;;;;10.75;2.75;;;15.20;99.90;;;;;;5108248;28;20089;-87
2023/04/14 11:37:54;;;;;;;7.97;2.33;;;15.40;99.90;;;;;;5099062;27;20039;-90
2023/04/14 11:40:21;;;;;;;8.18;2.15;;;15.40;99.90;;;;;;5106136;28;20130;-89
2023/04/14 11:42:52;;;;;;;7.03;2.35;;;15.30;99.90;;;;;;5100602;27;20103;-87
2023/04/14 11:45:18;;;;;;;10.02;2.53;;;15.40;99.90;;;;;;5104339;28;20105;-87
2023/04/14 11:47:58;;;;;;;9.75;2.70;;;15.60;99.90;;;;;;5108304;28;20047;-87
2023/04/14 11:50:25;;;;;;;8.77;2.38;;;15.70;99.90;;;;;;5107916;27;20047;-88
2023/04/14 11:52:52;;;;;;;14.50;2.85;;;15.80;99.90;;;;;;5101779;27;20035;-87
2023/04/14 11:55:18;;;;;;;15.75;2.85;;;15.90;99.90;;;;;;5113699;27;20099;-88
2023/04/14 11:57:45;;;;;;;7.97;2.20;;;16.00;99.90;;;;;;5102472;27;20122;-86
2023/04/14 12:00:12;;;;;;;10.18;2.63;;;15.80;99.90;;;;;;5114205;27;20059;-88
2023/04/14 12:02:42;;;;;;;9.07;2.00;;;15.60;99.90;;;;;;5101188;27;20122;-87
2023/04/14 12:05:08;;;;;;;7.13;1.90;;;15.40;99.90;;;;;;5101616;27;20039;-87
2023/04/14 12:07:34;;;;;;;6.55;1.85;;;15.20;99.90;;;;;;5113725;27;20038;-87
2023/04/14 12:10:03;;;;;;;9.73;2.13;;;15.20;99.90;;;;;;5115108;27;20039;-87
2023/04/14 12:12:31;;;;;;;8.85;2.20;;;15.20;99.90;;;;;;5103985;27;20039;-87
2023/04/14 12:14:57;;;;;;;9.45;1.75;;;15.40;99.90;;;;;;5118762;27;20047;-87
2023/04/14 12:17:24;;;;;;;8.75;1.83;;;15.60;99.90;;;;;;5113809;27;20047;-87
2023/04/14 12:19:50;;;;;;;6.00;1.83;;;15.80;99.90;;;;;;5102143;27;20039;-87
2023/04/14 12:22:25;;;;;;;9.70;1.90;;;16.00;99.90;;;;;;5114420;27;20027;-88
2023/04/14 12:24:52;;;;;;;6.93;1.70;;;16.10;99.90;;;;;;5101687;27;20133;-88
2023/04/14 12:27:21;;;;;;;8.85;1.73;;;16.10;99.90;;;;;;5117329;27;20061;-88
2023/04/14 12:29:48;;;;;;;11.80;2.10;;;16.10;99.90;;;;;;5115309;27;20494;-88
2023/04/14 12:32:16;;;;;;;7.85;2.15;;;16.10;99.90;;;;;;5107575;27;20500;-88
2023/04/14 12:34:53;;;;;;;11.60;2.28;;;16.10;99.90;;;;;;5114597;27;20023;-88
2023/04/14 12:37:25;;;;;;;9.40;1.85;;;16.20;99.90;;;;;;5100617;27;20057;-88
2023/04/14 12:39:56;;;;;;;6.95;1.60;;;16.20;99.90;;;;;;5108200;27;20405;-87
2023/04/14 12:42:22;;;;;;;10.27;2.10;;;16.10;99.90;;;;;;5111181;27;20134;-87
2023/04/14 12:44:59;;;;;;;7.93;1.70;;;16.10;99.90;;;;;;5103181;27;20042;-87
2023/04/14 12:47:27;;;;;;;6.15;1.38;;;16.10;99.90;;;;;;5110108;27;20062;-88